createdAt,value
2023-08-05T00:01:02.569Z,102137.28
2023-08-05T00:03:29.780Z,102141.59
2023-08-05T00:05:56.958Z,102136.22
2023-08-05T00:08:25.368Z,102130.03
2023-08-05T00:10:52.563Z,102129.03
2023-08-05T00:13:19.806Z,102115.94
2023-08-05T00:15:47.150Z,102121.97
2023-08-05T00:18:14.342Z,102121.97
2023-08-05T00:20:41.378Z,102117.47
2023-08-05T00:23:08.564Z,102118.13
2023-08-05T00:25:35.927Z,102105.84
2023-08-05T00:28:03.371Z,102104.91
2023-08-05T00:30:31.133Z,102099.69
2023-08-05T00:32:58.579Z,102099.63
2023-08-05T00:35:25.629Z,102097.91
2023-08-05T00:37:53.218Z,102097.81
2023-08-05T00:40:20.367Z,102093.38
2023-08-05T00:42:47.394Z,102093.31
2023-08-05T00:45:14.921Z,102090.66
2023-08-05T00:47:42.659Z,102097.63
2023-08-05T00:50:10.379Z,102097.41
2023-08-05T00:52:38.152Z,102097.34
2023-08-05T00:55:05.872Z,102094.72
2023-08-05T00:57:34.883Z,102097.25
2023-08-05T01:00:02.161Z,102098.19
2023-08-05T01:02:29.349Z,102084.88
2023-08-05T01:04:56.881Z,102077.81
2023-08-05T01:07:24.550Z,102073.38
2023-08-05T01:09:52.739Z,102077.81
2023-08-05T01:12:19.915Z,102065.41
2023-08-05T01:14:47.321Z,102062.00
2023-08-05T01:17:14.330Z,102067.97
2023-08-05T01:19:44.257Z,102059.09
2023-08-05T01:22:11.684Z,102058.94
2023-08-05T01:24:48.232Z,102059.94
2023-08-05T01:27:15.694Z,102052.75
2023-08-05T01:29:42.881Z,102049.09
2023-08-05T01:32:11.236Z,102041.31
2023-08-05T01:34:39.316Z,102049.09
2023-08-05T01:37:06.693Z,102033.34
2023-08-05T01:39:33.982Z,102029.75
2023-08-05T01:42:01.142Z,102030.34
2023-08-05T01:44:28.523Z,102038.38
2023-08-05T01:46:55.643Z,102034.84
2023-08-05T01:49:22.779Z,102034.72
2023-08-05T01:51:50.046Z,102019.75
2023-08-05T01:54:17.721Z,102016.94
2023-08-05T01:56:44.950Z,102016.84
2023-08-05T01:59:12.262Z,102023.66
2023-08-05T02:01:43.077Z,102034.16
2023-08-05T02:04:10.337Z,102037.63
2023-08-05T02:06:37.814Z,102035.91
2023-08-05T02:09:05.416Z,102039.31
2023-08-05T02:11:32.884Z,102035.84
2023-08-05T02:14:00.037Z,102033.97
2023-08-05T02:16:27.784Z,102027.78
2023-08-05T02:18:55.051Z,102021.59
2023-08-05T02:21:23.073Z,102025.00
2023-08-05T02:23:50.241Z,102023.19
2023-08-05T02:26:17.622Z,102034.66
2023-08-05T02:28:48.447Z,102024.06
2023-08-05T02:31:16.043Z,102024.91
2023-08-05T02:33:45.481Z,102018.03
2023-08-05T02:36:13.069Z,102021.44
2023-08-05T02:38:40.776Z,102020.50
2023-08-05T02:41:09.681Z,102012.53
2023-08-05T02:43:37.342Z,102010.78
2023-08-05T02:46:05.798Z,102009.81
2023-08-05T02:48:33.012Z,102010.50
2023-08-05T02:51:00.717Z,101968.56
2023-08-05T02:53:31.325Z,102004.88
2023-08-05T02:55:58.792Z,102004.66
2023-08-05T02:58:26.660Z,102002.44
2023-08-05T03:00:54.011Z,101998.84
2023-08-05T03:03:21.163Z,101998.00
2023-08-05T03:05:48.559Z,101995.28
2023-08-05T03:08:15.953Z,101987.53
2023-08-05T03:10:43.782Z,101986.59
2023-08-05T03:13:11.292Z,101988.25
2023-08-05T03:15:39.481Z,101993.31
2023-08-05T03:18:14.352Z,101985.28
2023-08-05T03:20:41.559Z,101995.09
2023-08-05T03:23:13.758Z,101992.47
2023-08-05T03:25:42.312Z,101986.34
2023-08-05T03:28:09.573Z,101985.59
2023-08-05T03:30:41.482Z,101981.97
2023-08-05T03:33:14.696Z,101974.94
2023-08-05T03:35:44.180Z,101969.66
2023-08-05T03:38:13.250Z,101966.25
2023-08-05T03:40:40.483Z,101961.94
2023-08-05T03:43:08.132Z,101974.94
2023-08-05T03:45:35.549Z,101970.50
2023-08-05T03:48:02.990Z,101970.59
2023-08-05T03:50:30.495Z,101967.91
2023-08-05T03:52:59.168Z,101965.38
2023-08-05T03:55:26.641Z,101972.47
2023-08-05T03:57:54.253Z,101962.78
2023-08-05T04:00:21.882Z,101952.97
2023-08-05T04:02:49.056Z,101952.09
2023-08-05T04:05:16.387Z,101941.47
2023-08-05T04:07:44.456Z,101937.09
2023-08-05T04:10:13.810Z,101935.31
2023-08-05T04:12:41.263Z,101950.16
2023-08-05T04:15:13.130Z,101934.38
2023-08-05T04:17:41.672Z,101937.84
2023-08-05T04:20:09.549Z,101929.78
2023-08-05T04:22:38.274Z,101931.56
2023-08-05T04:25:06.392Z,101935.84
2023-08-05T04:27:33.547Z,101933.06
2023-08-05T04:30:01.038Z,101927.72
2023-08-05T04:32:28.348Z,101934.81
2023-08-05T04:34:57.811Z,101930.44
2023-08-05T04:37:25.339Z,101930.44
2023-08-05T04:39:52.818Z,101928.81
2023-08-05T04:42:20.214Z,101934.84
2023-08-05T04:44:47.659Z,101947.75
2023-08-05T04:47:15.009Z,101938.97
2023-08-05T04:49:44.530Z,101938.03
2023-08-05T04:52:13.810Z,101950.31
2023-08-05T04:54:42.438Z,101956.56
2023-08-05T04:57:09.972Z,101955.53
2023-08-05T04:59:37.323Z,101962.34
2023-08-05T05:02:05.757Z,101951.78
2023-08-05T05:04:33.269Z,101957.13
2023-08-05T05:07:00.716Z,101960.63
2023-08-05T05:09:28.394Z,101956.50
2023-08-05T05:11:55.725Z,101970.78
2023-08-05T05:14:23.317Z,101945.50
2023-08-05T05:16:52.097Z,101950.75
2023-08-05T05:19:19.524Z,101945.53
2023-08-05T05:21:46.727Z,101946.44
2023-08-05T05:24:13.920Z,101940.31
2023-08-05T05:26:41.750Z,101936.78
2023-08-05T05:29:08.924Z,101935.06
2023-08-05T05:31:36.175Z,101915.03
2023-08-05T05:34:03.751Z,101920.34
2023-08-05T05:36:31.179Z,101918.84
2023-08-05T05:38:58.341Z,101926.13
2023-08-05T05:41:25.871Z,101922.03
2023-08-05T05:43:53.415Z,101931.09
2023-08-05T05:46:21.373Z,101935.69
2023-08-05T05:48:48.496Z,101936.84
2023-08-05T05:51:15.848Z,101943.00
2023-08-05T05:53:44.233Z,101942.06
2023-08-05T05:56:13.577Z,101940.38
2023-08-05T05:58:41.347Z,101943.09
2023-08-05T06:01:08.829Z,101943.94
2023-08-05T06:03:36.423Z,101942.34
2023-08-05T06:06:04.114Z,101951.16
2023-08-05T06:08:31.645Z,101955.56
2023-08-05T06:11:04.749Z,101950.44
2023-08-05T06:13:32.498Z,101964.66
2023-08-05T06:15:59.638Z,101951.75
2023-08-05T06:18:26.890Z,101958.97
2023-08-05T06:20:53.973Z,101960.13
2023-08-05T06:23:21.365Z,101957.75
2023-08-05T06:25:48.585Z,101953.41
2023-08-05T06:28:16.022Z,101940.44
2023-08-05T06:30:44.055Z,101934.56
2023-08-05T06:33:11.704Z,101943.47
2023-08-05T06:35:39.339Z,101945.44
2023-08-05T06:38:06.649Z,101944.75
2023-08-05T06:40:34.092Z,101938.75
2023-08-05T06:43:01.525Z,101950.41
2023-08-05T06:45:29.004Z,101945.38
2023-08-05T06:47:56.717Z,101936.72
2023-08-05T06:50:24.017Z,101934.19
2023-08-05T06:52:51.651Z,101934.22
2023-08-05T06:55:20.669Z,101939.72
2023-08-05T06:57:49.903Z,101933.75
2023-08-05T07:00:18.714Z,101935.81
2023-08-05T07:02:45.868Z,101932.56
2023-08-05T07:05:13.144Z,101915.31
2023-08-05T07:07:40.212Z,101929.69
2023-08-05T07:10:09.714Z,101923.88
2023-08-05T07:12:36.837Z,101919.78
2023-08-05T07:15:06.993Z,101920.94
2023-08-05T07:17:34.419Z,101910.63
2023-08-05T07:20:02.139Z,101913.44
2023-08-05T07:22:29.525Z,101914.53
2023-08-05T07:24:57.045Z,101920.84
2023-08-05T07:27:24.773Z,101923.72
2023-08-05T07:29:52.209Z,101918.59
2023-08-05T07:32:19.507Z,101917.00
2023-08-05T07:34:49.015Z,101910.19
2023-08-05T07:37:16.437Z,101919.97
2023-08-05T07:39:47.925Z,101913.06
2023-08-05T07:42:20.531Z,101915.78
2023-08-05T07:44:48.185Z,101906.16
2023-08-05T07:47:15.833Z,101899.19
2023-08-05T07:49:43.210Z,101902.78
2023-08-05T07:52:10.899Z,101905.47
2023-08-05T07:54:38.632Z,101892.28
2023-08-05T07:57:06.198Z,101895.94
2023-08-05T07:59:34.225Z,101886.25
2023-08-05T08:02:01.731Z,101879.31
2023-08-05T08:04:29.407Z,101879.41
2023-08-05T08:06:56.736Z,101877.69
2023-08-05T08:09:23.700Z,101883.03
2023-08-05T08:11:51.075Z,101883.03
2023-08-05T08:14:19.038Z,101868.94
2023-08-05T08:16:46.290Z,101873.41
2023-08-05T08:19:15.033Z,101858.38
2023-08-05T08:21:42.199Z,101852.25
2023-08-05T08:24:10.019Z,101861.09
2023-08-05T08:26:37.517Z,101852.28
2023-08-05T08:29:04.758Z,101850.50
2023-08-05T08:31:33.223Z,101852.31
2023-08-05T08:34:00.344Z,101845.25
2023-08-05T08:36:27.825Z,101833.78
2023-08-05T08:38:55.208Z,101841.72
2023-08-05T08:41:22.390Z,101842.63
2023-08-05T08:43:51.263Z,101842.59
2023-08-05T08:46:20.155Z,101839.06
2023-08-05T08:48:48.404Z,101843.47
2023-08-05T08:51:16.794Z,101839.03
2023-08-05T08:53:45.662Z,101832.88
2023-08-05T08:56:12.714Z,101832.81
2023-08-05T08:58:39.856Z,101832.84
2023-08-05T09:01:09.040Z,101829.31
2023-08-05T09:03:36.383Z,101815.13
2023-08-05T09:06:03.634Z,101808.84
2023-08-05T09:08:31.140Z,101810.56
2023-08-05T09:10:58.719Z,101806.91
2023-08-05T09:13:26.050Z,101807.72
2023-08-05T09:15:55.304Z,101805.03
2023-08-05T09:18:22.537Z,101802.28
2023-08-05T09:20:51.210Z,101800.50
2023-08-05T09:23:18.619Z,101799.63
2023-08-05T09:25:49.656Z,101800.50
2023-08-05T09:28:30.039Z,101789.88
2023-08-05T09:31:17.037Z,101783.59
2023-08-05T09:33:45.056Z,101778.91
2023-08-05T09:36:13.315Z,101770.75
2023-08-05T09:38:44.252Z,101762.63
2023-08-05T09:41:11.775Z,101759.94
2023-08-05T09:43:50.468Z,101760.72
2023-08-05T09:46:20.554Z,101760.72
2023-08-05T09:48:47.727Z,101759.06
2023-08-05T09:51:18.928Z,101744.91
2023-08-05T09:53:49.260Z,101746.56
2023-08-05T09:56:20.516Z,101738.22
2023-08-05T09:58:51.806Z,101726.41
2023-08-05T10:01:20.447Z,101715.63
2023-08-05T10:03:49.346Z,101716.56
2023-08-05T10:06:16.984Z,101724.69
2023-08-05T10:08:45.070Z,101722.97
2023-08-05T10:11:12.539Z,101730.91
2023-08-05T10:13:44.006Z,101733.63
2023-08-05T10:16:11.573Z,101717.56
2023-08-05T10:18:39.474Z,101711.28
2023-08-05T10:21:08.771Z,101705.84
2023-08-05T10:23:37.063Z,101704.03
2023-08-05T10:26:05.600Z,101692.28
2023-08-05T10:28:35.822Z,101689.03
2023-08-05T10:31:24.139Z,101683.53
2023-08-05T10:34:11.312Z,101688.13
2023-08-05T10:36:45.448Z,101685.44
2023-08-05T10:39:42.034Z,101690.91
2023-08-05T10:42:33.234Z,101698.91
2023-08-05T10:45:01.120Z,101685.53
2023-08-05T10:47:28.644Z,101686.13
2023-08-05T10:50:03.295Z,101684.13
2023-08-05T10:52:31.214Z,101682.22
2023-08-05T10:54:58.800Z,101683.81
2023-08-05T10:57:35.303Z,101682.88
2023-08-05T11:00:04.395Z,101680.03
2023-08-05T11:02:33.012Z,101684.25
2023-08-05T11:05:08.295Z,101673.78
2023-08-05T11:07:39.345Z,101671.19
2023-08-05T11:10:07.092Z,101659.94
2023-08-05T11:12:34.374Z,101661.56
2023-08-05T11:15:01.811Z,101655.94
2023-08-05T11:17:29.375Z,101649.56
2023-08-05T11:19:57.772Z,101649.72
2023-08-05T11:22:26.781Z,101651.50
2023-08-05T11:25:00.720Z,101662.16
2023-08-05T11:27:35.528Z,101648.66
2023-08-05T11:30:11.646Z,101634.22
2023-08-05T11:32:55.410Z,101637.97
2023-08-05T11:35:23.131Z,101643.13
2023-08-05T11:37:50.409Z,101644.16
2023-08-05T11:40:18.030Z,101638.00
2023-08-05T11:42:45.659Z,101645.28
2023-08-05T11:45:13.878Z,101642.81
2023-08-05T11:47:41.602Z,101645.56
2023-08-05T11:50:10.105Z,101638.59
2023-08-05T11:52:37.687Z,101645.91
2023-08-05T11:55:06.671Z,101639.91
2023-08-05T11:57:36.706Z,101636.22
2023-08-05T12:00:06.341Z,101642.38
2023-08-05T12:02:37.376Z,101644.38
2023-08-05T12:05:08.689Z,101642.63
2023-08-05T12:07:43.468Z,101652.59
2023-08-05T12:10:13.489Z,101635.84
2023-08-05T12:12:50.750Z,101646.56
2023-08-05T12:15:19.280Z,101643.91
2023-08-05T12:17:50.371Z,101644.91
2023-08-05T12:20:19.116Z,101647.66
2023-08-05T12:22:47.262Z,101637.16
2023-08-05T12:25:14.324Z,101638.94
2023-08-05T12:27:41.916Z,101642.50
2023-08-05T12:30:10.213Z,101648.50
2023-08-05T12:32:37.868Z,101640.34
2023-08-05T12:35:09.514Z,101640.31
2023-08-05T12:37:38.161Z,101636.78
2023-08-05T12:40:06.206Z,101634.81
2023-08-05T12:42:33.344Z,101624.19
2023-08-05T12:45:07.035Z,101628.41
2023-08-05T12:47:36.468Z,101622.38
2023-08-05T12:50:04.355Z,101625.06
2023-08-05T12:52:31.760Z,101624.13
2023-08-05T12:54:59.002Z,101614.53
2023-08-05T12:57:26.252Z,101619.03
2023-08-05T12:59:53.718Z,101612.09
2023-08-05T13:02:23.097Z,101615.69
2023-08-05T13:04:50.981Z,101618.59
2023-08-05T13:07:18.259Z,101617.69
2023-08-05T13:09:46.036Z,101621.50
2023-08-05T13:12:14.885Z,101619.69
2023-08-05T13:14:43.303Z,101617.06
2023-08-05T13:17:10.650Z,101623.22
2023-08-05T13:19:38.072Z,101631.19
2023-08-05T13:22:05.760Z,101636.66
2023-08-05T13:24:35.655Z,101648.41
2023-08-05T13:27:03.529Z,101646.03
2023-08-05T13:29:31.164Z,101647.91
2023-08-05T13:31:58.865Z,101654.84
2023-08-05T13:34:26.147Z,101653.31
2023-08-05T13:36:53.481Z,101653.31
2023-08-05T13:39:20.949Z,101661.41
2023-08-05T13:41:48.189Z,101670.41
2023-08-05T13:44:15.781Z,101663.47
2023-08-05T13:46:43.381Z,101666.09
2023-08-05T13:49:11.042Z,101668.84
2023-08-05T13:51:38.183Z,101667.13
2023-08-05T13:54:05.379Z,101679.59
2023-08-05T13:56:33.023Z,101674.34
2023-08-05T13:59:00.307Z,101679.88
2023-08-05T14:01:27.618Z,101684.34
2023-08-05T14:03:54.812Z,101684.41
2023-08-05T14:06:23.331Z,101670.38
2023-08-05T14:08:51.301Z,101671.25
2023-08-05T14:11:18.571Z,101667.81
2023-08-05T14:13:45.788Z,101675.84
2023-08-05T14:16:13.062Z,101668.75
2023-08-05T14:18:40.294Z,101671.38
2023-08-05T14:21:08.275Z,101676.66
2023-08-05T14:23:35.504Z,101676.66
2023-08-05T14:26:02.716Z,101686.31
2023-08-05T14:28:30.372Z,101684.44
2023-08-05T14:30:57.434Z,101683.53
2023-08-05T14:33:24.630Z,101678.22
2023-08-05T14:35:51.742Z,101680.00
2023-08-05T14:38:20.090Z,101680.00
2023-08-05T14:40:47.293Z,101673.81
2023-08-05T14:43:14.679Z,101672.09
2023-08-05T14:45:41.964Z,101675.59
2023-08-05T14:48:09.598Z,101675.56
2023-08-05T14:50:38.471Z,101664.16
2023-08-05T14:53:05.992Z,101669.50
2023-08-05T14:55:33.876Z,101668.56
2023-08-05T14:58:01.265Z,101665.94
2023-08-05T15:00:28.723Z,101665.94
2023-08-05T15:02:56.325Z,101662.47
2023-08-05T15:05:23.968Z,101652.63
2023-08-05T15:07:51.297Z,101649.03
2023-08-05T15:10:18.454Z,101648.13
2023-08-05T15:12:45.692Z,101653.50
2023-08-05T15:15:12.880Z,101649.13
2023-08-05T15:17:42.825Z,101642.13
2023-08-05T15:20:11.921Z,101643.81
2023-08-05T15:22:39.323Z,101639.41
2023-08-05T15:25:06.855Z,101639.34
2023-08-05T15:27:34.445Z,101633.97
2023-08-05T15:30:01.698Z,101632.22
2023-08-05T15:32:29.140Z,101628.59
2023-08-05T15:34:56.633Z,101632.91
2023-08-05T15:37:23.772Z,101632.94
2023-08-05T15:39:51.398Z,101630.28
2023-08-05T15:42:18.836Z,101616.91
2023-08-05T15:44:46.109Z,101615.09
2023-08-05T15:47:13.342Z,101609.91
2023-08-05T15:49:40.715Z,101610.81
2023-08-05T15:52:07.978Z,101611.72
2023-08-05T15:54:35.160Z,101612.63
2023-08-05T15:57:05.106Z,101611.81
2023-08-05T15:59:32.811Z,101606.50
2023-08-05T16:02:00.139Z,101621.72
2023-08-05T16:04:27.600Z,101613.81
2023-08-05T16:06:56.618Z,101613.81
2023-08-05T16:09:24.782Z,101620.88
2023-08-05T16:11:52.976Z,101617.41
2023-08-05T16:14:20.523Z,101612.91
2023-08-05T16:16:47.920Z,101606.75
2023-08-05T16:19:16.884Z,101608.41
2023-08-05T16:21:47.513Z,101612.00
2023-08-05T16:24:14.672Z,101608.47
2023-08-05T16:26:45.312Z,101598.69
2023-08-05T16:29:12.824Z,101593.16
2023-08-05T16:31:40.178Z,101590.53
2023-08-05T16:34:07.542Z,101593.06
2023-08-05T16:36:35.717Z,101593.97
2023-08-05T16:39:05.300Z,101585.16
2023-08-05T16:41:32.421Z,101588.69
2023-08-05T16:43:59.908Z,101589.47
2023-08-05T16:46:38.693Z,101593.09
2023-08-05T16:49:14.326Z,101593.84
2023-08-05T16:51:41.510Z,101589.25
2023-08-05T16:54:08.677Z,101581.28
2023-08-05T16:56:35.909Z,101577.66
2023-08-05T16:59:04.982Z,101581.34
2023-08-05T17:01:33.725Z,101586.75
2023-08-05T17:04:00.965Z,101584.00
2023-08-05T17:06:28.270Z,101588.44
2023-08-05T17:08:55.549Z,101588.50
2023-08-05T17:11:22.990Z,101579.63
2023-08-05T17:13:50.129Z,101581.44
2023-08-05T17:16:17.476Z,101581.59
2023-08-05T17:18:44.658Z,101588.78
2023-08-05T17:21:11.773Z,101588.69
2023-08-05T17:23:38.940Z,101594.97
2023-08-05T17:26:06.343Z,101593.22
2023-08-05T17:28:33.552Z,101590.59
2023-08-05T17:31:02.948Z,101597.66
2023-08-05T17:33:30.207Z,101606.53
2023-08-05T17:35:57.702Z,101601.19
2023-08-05T17:38:26.559Z,101605.69
2023-08-05T17:40:55.001Z,101607.47
2023-08-05T17:43:22.203Z,101605.69
2023-08-05T17:45:59.414Z,101609.25
2023-08-05T17:48:26.908Z,101612.00
2023-08-05T17:50:58.396Z,101620.88
2023-08-05T17:53:26.104Z,101625.34
2023-08-05T17:55:54.169Z,101619.13
2023-08-05T17:58:21.902Z,101621.78
2023-08-05T18:00:49.589Z,101632.41
2023-08-05T18:03:16.990Z,101638.75
2023-08-05T18:05:44.658Z,101638.75
2023-08-05T18:08:11.874Z,101633.44
2023-08-05T18:10:39.165Z,101637.97
2023-08-05T18:13:06.573Z,101647.78
2023-08-05T18:15:33.821Z,101647.81
2023-08-05T18:18:03.315Z,101657.53
2023-08-05T18:20:33.428Z,101649.66
2023-08-05T18:23:01.021Z,101655.00
2023-08-05T18:25:30.611Z,101655.97
2023-08-05T18:27:58.134Z,101654.22
2023-08-05T18:30:25.277Z,101649.78
2023-08-05T18:32:52.938Z,101653.38
2023-08-05T18:35:20.384Z,101655.97
2023-08-05T18:37:47.862Z,101654.22
2023-08-05T18:40:15.139Z,101652.50
2023-08-05T18:42:42.413Z,101656.91
2023-08-05T18:45:09.735Z,101666.66
2023-08-05T18:47:37.938Z,101663.16
2023-08-05T18:50:05.688Z,101673.78
2023-08-05T18:52:32.902Z,101673.81
2023-08-05T18:55:01.211Z,101663.25
2023-08-05T18:57:28.366Z,101661.53
2023-08-05T18:59:55.389Z,101685.38
2023-08-05T19:02:23.756Z,101681.88
2023-08-05T19:04:50.847Z,101688.09
2023-08-05T19:07:18.249Z,101691.63
2023-08-05T19:09:45.528Z,101676.63
2023-08-05T19:12:13.115Z,101682.81
2023-08-05T19:14:40.606Z,101688.97
2023-08-05T19:17:07.801Z,101681.06
2023-08-05T19:19:38.752Z,101686.38
2023-08-05T19:22:06.761Z,101686.31
2023-08-05T19:24:34.058Z,101690.75
2023-08-05T19:27:02.388Z,101687.22
2023-08-05T19:29:29.637Z,101694.28
2023-08-05T19:31:56.922Z,101696.91
2023-08-05T19:34:24.260Z,101696.94
2023-08-05T19:36:51.412Z,101695.16
2023-08-05T19:39:18.630Z,101696.06
2023-08-05T19:41:45.785Z,101699.56
2023-08-05T19:44:14.392Z,101707.50
2023-08-05T19:46:41.717Z,101707.50
2023-08-05T19:49:08.975Z,101717.19
2023-08-05T19:51:35.982Z,101720.72
2023-08-05T19:54:03.293Z,101726.03
2023-08-05T19:56:30.478Z,101725.13
2023-08-05T19:58:57.749Z,101723.38
2023-08-05T20:01:25.344Z,101719.84
2023-08-05T20:03:52.482Z,101731.31
2023-08-05T20:06:19.690Z,101729.56
2023-08-05T20:08:46.786Z,101735.72
2023-08-05T20:11:15.270Z,101739.22
2023-08-05T20:13:42.590Z,101737.47
2023-08-05T20:16:09.794Z,101754.25
2023-08-05T20:18:41.979Z,101754.25
2023-08-05T20:21:09.048Z,101756.88
2023-08-05T20:23:36.352Z,101759.50
2023-08-05T20:26:07.819Z,101763.91
2023-08-05T20:28:35.046Z,101774.50
2023-08-05T20:31:02.630Z,101770.97
2023-08-05T20:33:30.035Z,101781.53
2023-08-05T20:35:58.247Z,101784.16
2023-08-05T20:38:26.733Z,101789.47
2023-08-05T20:40:54.075Z,101792.13
2023-08-05T20:43:21.187Z,101802.69
2023-08-05T20:45:48.196Z,101794.72
2023-08-05T20:48:15.854Z,101800.00
2023-08-05T20:50:43.063Z,101799.09
2023-08-05T20:53:12.012Z,101788.53
2023-08-05T20:55:39.512Z,101791.09
2023-08-05T20:58:06.673Z,101791.09
2023-08-05T21:00:34.444Z,101796.34
2023-08-05T21:03:02.729Z,101796.38
2023-08-05T21:05:30.424Z,101802.53
2023-08-05T21:07:57.659Z,101795.47
2023-08-05T21:10:25.015Z,101789.28
2023-08-05T21:12:52.080Z,101792.78
2023-08-05T21:15:19.333Z,101794.56
2023-08-05T21:17:46.667Z,101795.38
2023-08-05T21:20:13.952Z,101794.50
2023-08-05T21:22:41.157Z,101798.91
2023-08-05T21:25:08.701Z,101803.31
2023-08-05T21:27:39.053Z,101807.69
2023-08-05T21:30:07.046Z,101805.00
2023-08-05T21:32:34.248Z,101812.03
2023-08-05T21:35:01.675Z,101816.47
2023-08-05T21:37:28.865Z,101819.97
2023-08-05T21:39:56.231Z,101814.69
2023-08-05T21:42:23.722Z,101822.63
2023-08-05T21:44:50.941Z,101822.59
2023-08-05T21:47:18.176Z,101827.81
2023-08-05T21:49:45.410Z,101824.34
2023-08-05T21:52:12.388Z,101828.72
2023-08-05T21:54:39.725Z,101835.75
2023-08-05T21:57:07.907Z,101831.34
2023-08-05T21:59:35.242Z,101832.22
2023-08-05T22:02:03.422Z,101828.69
2023-08-05T22:04:32.605Z,101841.91
2023-08-05T22:06:59.667Z,101848.06
2023-08-05T22:09:26.839Z,101847.16
2023-08-05T22:11:54.412Z,101848.00
2023-08-05T22:14:21.655Z,101842.66
2023-08-05T22:16:48.733Z,101841.78
2023-08-05T22:19:15.806Z,101840.88
2023-08-05T22:21:42.793Z,101844.34
2023-08-05T22:24:10.759Z,101832.88
2023-08-05T22:26:37.793Z,101832.84
2023-08-05T22:29:05.678Z,101823.13
2023-08-05T22:31:32.810Z,101829.28
2023-08-05T22:33:59.912Z,101823.06
2023-08-05T22:36:26.982Z,101830.06
2023-08-05T22:38:54.028Z,101830.81
2023-08-05T22:41:21.155Z,101830.78
2023-08-05T22:43:51.017Z,101832.56
2023-08-05T22:46:18.157Z,101830.75
2023-08-05T22:48:45.206Z,101833.41
2023-08-05T22:51:12.477Z,101833.34
2023-08-05T22:53:40.232Z,101833.28
2023-08-05T22:56:07.295Z,101835.91
2023-08-05T22:58:34.379Z,101842.94
2023-08-05T23:01:05.473Z,101846.41
2023-08-05T23:03:32.646Z,101847.28
2023-08-05T23:05:59.844Z,101845.50
2023-08-05T23:08:26.911Z,101848.09
2023-08-05T23:10:54.083Z,101854.25
2023-08-05T23:13:21.095Z,101859.47
2023-08-05T23:15:48.257Z,101863.78
2023-08-05T23:18:15.483Z,101861.19
2023-08-05T23:20:42.492Z,101855.88
2023-08-05T23:23:09.535Z,101863.66
2023-08-05T23:25:37.371Z,101863.63
2023-08-05T23:28:04.464Z,101862.75
2023-08-05T23:30:31.578Z,101853.00
2023-08-05T23:32:58.652Z,101857.28
2023-08-05T23:35:26.306Z,101854.59
2023-08-05T23:37:53.414Z,101857.13
2023-08-05T23:40:20.412Z,101857.03
2023-08-05T23:42:47.448Z,101858.75
2023-08-05T23:45:15.047Z,101862.22
2023-08-05T23:47:42.225Z,101859.59
2023-08-05T23:50:09.551Z,101850.91
2023-08-05T23:52:36.645Z,101849.16
2023-08-05T23:55:03.985Z,101855.31
2023-08-05T23:57:31.061Z,101857.00
2023-08-05T23:59:58.172Z,101858.75
